createdAt,value
2019-04-05T00:01:17.131Z,15.45
2019-04-05T00:03:45.714Z,15.47
2019-04-05T00:06:13.780Z,15.45
2019-04-05T00:08:41.781Z,15.50
2019-04-05T00:11:09.791Z,15.52
2019-04-05T00:13:37.768Z,15.52
2019-04-05T00:16:06.434Z,15.57
2019-04-05T00:18:34.424Z,15.47
2019-04-05T00:21:04.854Z,15.42
2019-04-05T00:23:35.276Z,15.41
2019-04-05T00:26:04.309Z,15.48
2019-04-05T00:28:32.306Z,15.48
2019-04-05T00:31:00.244Z,15.48
2019-04-05T00:33:28.423Z,15.41
2019-04-05T00:35:56.478Z,15.49
2019-04-05T00:38:24.394Z,15.50
2019-04-05T00:40:52.351Z,15.50
2019-04-05T00:43:20.267Z,15.36
2019-04-05T00:45:48.140Z,15.43
2019-04-05T00:48:16.125Z,15.40
2019-04-05T00:50:44.181Z,15.39
2019-04-05T00:53:12.806Z,15.32
2019-04-05T00:55:40.886Z,15.42
2019-04-05T00:58:08.817Z,15.42
2019-04-05T01:00:36.873Z,15.40
2019-04-05T01:03:04.964Z,15.43
2019-04-05T01:05:33.280Z,15.43
2019-04-05T01:08:01.472Z,15.35
2019-04-05T01:10:29.486Z,15.30
2019-04-05T01:12:57.593Z,15.29
2019-04-05T01:15:25.609Z,15.21
2019-04-05T01:17:54.199Z,15.29
2019-04-05T01:20:24.215Z,15.20
2019-04-05T01:22:53.295Z,15.23
2019-04-05T01:25:22.088Z,15.14
2019-04-05T01:27:50.688Z,15.11
2019-04-05T01:30:18.733Z,15.12
2019-04-05T01:32:47.391Z,15.08
2019-04-05T01:35:15.421Z,15.08
2019-04-05T01:37:43.843Z,14.94
2019-04-05T01:40:13.040Z,14.98
2019-04-05T01:42:41.716Z,14.89
2019-04-05T01:45:09.879Z,14.90
2019-04-05T01:47:38.058Z,14.90
2019-04-05T01:50:06.774Z,14.86
2019-04-05T01:52:35.462Z,14.79
2019-04-05T01:55:03.592Z,14.81
2019-04-05T01:57:31.560Z,14.79
2019-04-05T01:59:59.468Z,14.75
2019-04-05T02:02:27.544Z,14.70
2019-04-05T02:04:56.061Z,14.74
2019-04-05T02:07:24.115Z,14.74
2019-04-05T02:09:52.258Z,14.72
2019-04-05T02:12:20.368Z,14.73
2019-04-05T02:14:48.395Z,14.72
2019-04-05T02:17:16.481Z,14.68
2019-04-05T02:19:44.495Z,14.74
2019-04-05T02:22:12.574Z,14.74
2019-04-05T02:24:40.599Z,14.70
2019-04-05T02:27:09.382Z,14.71
2019-04-05T02:29:37.419Z,14.73
2019-04-05T02:32:05.539Z,14.72
2019-04-05T02:34:33.937Z,14.65
2019-04-05T02:37:02.085Z,14.64
2019-04-05T02:39:29.991Z,14.53
2019-04-05T02:41:58.375Z,14.53
2019-04-05T02:44:30.339Z,14.51
2019-04-05T02:46:59.115Z,14.50
2019-04-05T02:49:30.355Z,14.50
2019-04-05T02:52:00.113Z,14.48
2019-04-05T02:54:29.127Z,14.51
2019-04-05T02:56:58.375Z,14.44
2019-04-05T02:59:36.675Z,14.52
2019-04-05T03:02:05.680Z,14.52
2019-04-05T03:04:33.828Z,14.51
2019-04-05T03:07:03.234Z,14.38
2019-04-05T03:09:31.828Z,14.45
2019-04-05T03:12:00.266Z,14.29
2019-04-05T03:14:29.262Z,14.29
2019-04-05T03:16:58.486Z,14.40
2019-04-05T03:19:30.840Z,14.41
2019-04-05T03:22:03.975Z,14.41
2019-04-05T03:24:35.345Z,14.35
2019-04-05T03:27:12.467Z,14.36
2019-04-05T03:29:41.936Z,14.27
2019-04-05T03:32:10.001Z,14.27
2019-04-05T03:34:39.777Z,14.25
2019-04-05T03:37:07.855Z,14.24
2019-04-05T03:39:35.949Z,14.30
2019-04-05T03:42:04.239Z,14.23
2019-04-05T03:44:32.649Z,14.23
2019-04-05T03:47:01.001Z,14.14
2019-04-05T03:49:29.897Z,14.14
2019-04-05T03:51:57.948Z,13.98
2019-04-05T03:54:26.243Z,13.98
2019-04-05T03:56:54.346Z,14.06
2019-04-05T03:59:23.054Z,14.02
2019-04-05T04:01:51.399Z,14.03
2019-04-05T04:04:19.689Z,14.03
2019-04-05T04:06:48.112Z,13.90
2019-04-05T04:09:16.973Z,13.84
2019-04-05T04:11:45.028Z,13.91
2019-04-05T04:14:14.333Z,13.74
2019-04-05T04:16:42.886Z,13.71
2019-04-05T04:19:11.676Z,13.58
2019-04-05T04:22:23.985Z,13.63
2019-04-05T04:24:52.044Z,13.63
2019-04-05T04:27:20.684Z,13.62
2019-04-05T04:29:48.716Z,13.65
2019-04-05T04:32:26.585Z,13.60
2019-04-05T04:34:55.388Z,13.48
2019-04-05T04:37:23.489Z,13.49
2019-04-05T04:39:51.782Z,13.54
2019-04-05T04:42:20.185Z,13.45
2019-04-05T04:44:48.385Z,13.51
2019-04-05T04:47:26.340Z,13.45
2019-04-05T04:49:46.989Z,13.39
2019-04-05T04:52:16.009Z,13.48
2019-04-05T04:54:44.716Z,13.42
2019-04-05T04:57:12.749Z,13.42
2019-04-05T04:59:40.831Z,13.44
2019-04-05T05:02:09.037Z,13.44
2019-04-05T05:04:38.081Z,13.48
2019-04-05T05:07:06.313Z,13.55
2019-04-05T05:09:35.298Z,13.53
2019-04-05T05:12:03.565Z,13.52
2019-04-05T05:14:31.832Z,13.51
2019-04-05T05:17:00.082Z,13.54
2019-04-05T05:19:28.297Z,13.54
2019-04-05T05:21:56.305Z,13.58
2019-04-05T05:24:24.636Z,13.53
2019-04-05T05:26:53.751Z,13.67
2019-04-05T05:29:22.213Z,13.71
2019-04-05T05:31:50.199Z,13.71
2019-04-05T05:34:19.722Z,13.64
2019-04-05T05:36:48.318Z,13.64
2019-04-05T05:39:17.674Z,13.71
2019-04-05T05:41:46.257Z,13.75
2019-04-05T05:44:14.413Z,13.76
2019-04-05T05:46:42.382Z,13.76
2019-04-05T05:49:10.903Z,13.86
2019-04-05T05:51:39.675Z,13.86
2019-04-05T05:54:07.455Z,13.85
2019-04-05T05:56:36.050Z,13.81
2019-04-05T05:59:04.128Z,13.80
2019-04-05T06:01:32.105Z,13.76
2019-04-05T06:04:00.267Z,13.76
2019-04-05T06:06:28.260Z,13.78
2019-04-05T06:08:56.138Z,13.82
2019-04-05T06:11:24.087Z,13.82
2019-04-05T06:13:52.068Z,13.82
2019-04-05T06:16:20.382Z,13.75
2019-04-05T06:18:48.682Z,13.78
2019-04-05T06:21:16.742Z,13.76
2019-04-05T06:23:44.892Z,13.73
2019-04-05T06:26:12.732Z,13.73
2019-04-05T06:28:40.732Z,13.71
2019-04-05T06:31:08.753Z,13.77
2019-04-05T06:33:36.632Z,13.77
2019-04-05T06:36:04.726Z,13.79
2019-04-05T06:38:32.675Z,13.79
2019-04-05T06:41:00.636Z,13.88
2019-04-05T06:43:28.433Z,13.93
2019-04-05T06:45:56.548Z,13.98
2019-04-05T06:48:24.618Z,13.98
2019-04-05T06:50:53.350Z,14.09
2019-04-05T06:53:21.229Z,14.24
2019-04-05T06:55:49.186Z,14.38
2019-04-05T06:58:20.298Z,14.47
2019-04-05T07:00:57.014Z,14.68
2019-04-05T07:03:16.626Z,14.68
2019-04-05T07:05:44.638Z,14.75
2019-04-05T07:08:12.693Z,14.95
2019-04-05T07:10:40.629Z,14.95
2019-04-05T07:13:08.732Z,15.00
2019-04-05T07:15:36.756Z,15.06
2019-04-05T07:18:04.769Z,15.13
2019-04-05T07:20:32.821Z,15.17
2019-04-05T07:23:00.692Z,15.17
2019-04-05T07:25:29.517Z,15.27
2019-04-05T07:27:57.529Z,15.27
2019-04-05T07:30:28.656Z,15.44
2019-04-05T07:32:55.983Z,15.53
2019-04-05T07:35:33.285Z,15.53
2019-04-05T07:37:53.711Z,15.63
2019-04-05T07:40:21.688Z,15.76
2019-04-05T07:42:49.758Z,15.87
2019-04-05T07:45:17.737Z,16.07
2019-04-05T07:47:45.676Z,16.29
2019-04-05T07:50:13.665Z,16.29
2019-04-05T07:52:41.752Z,16.36
2019-04-05T07:55:09.843Z,16.44
2019-04-05T07:57:37.910Z,16.54
2019-04-05T08:00:07.509Z,16.54
2019-04-05T08:02:35.438Z,16.58
2019-04-05T08:05:06.202Z,16.70
2019-04-05T08:07:37.567Z,16.77
2019-04-05T08:10:06.871Z,16.87
2019-04-05T08:12:37.050Z,16.95
2019-04-05T08:15:05.534Z,16.99
2019-04-05T08:17:33.577Z,17.01
2019-04-05T08:20:02.368Z,17.10
2019-04-05T08:22:32.295Z,17.20
2019-04-05T08:25:00.055Z,17.30
2019-04-05T08:27:27.905Z,17.44
2019-04-05T08:29:55.779Z,17.54
2019-04-05T08:32:23.703Z,17.66
2019-04-05T08:34:51.597Z,17.85
2019-04-05T08:37:19.665Z,18.10
2019-04-05T08:39:47.681Z,18.27
2019-04-05T08:42:15.638Z,18.30
2019-04-05T08:44:43.432Z,18.28
2019-04-05T08:47:11.823Z,18.29
2019-04-05T08:49:39.595Z,18.25
2019-04-05T08:52:07.652Z,18.30
2019-04-05T08:54:36.972Z,18.32
2019-04-05T08:57:05.603Z,18.33
2019-04-05T08:59:33.586Z,18.34
2019-04-05T09:02:01.629Z,18.34
2019-04-05T09:04:29.471Z,18.34
2019-04-05T09:06:57.661Z,18.39
2019-04-05T09:09:25.517Z,18.49
2019-04-05T09:11:54.051Z,18.55
2019-04-05T09:14:21.921Z,18.55
2019-04-05T09:16:49.869Z,18.58
2019-04-05T09:19:23.408Z,18.65
2019-04-05T09:21:47.493Z,18.73
2019-04-05T09:24:15.394Z,18.83
2019-04-05T09:26:43.290Z,18.95
2019-04-05T09:29:11.137Z,19.12
2019-04-05T09:31:39.028Z,19.37
2019-04-05T09:34:06.881Z,19.47
2019-04-05T09:36:34.855Z,19.55
2019-04-05T09:39:05.554Z,19.55
2019-04-05T09:41:35.331Z,19.56
2019-04-05T09:44:03.361Z,19.60
2019-04-05T09:46:31.141Z,19.67
2019-04-05T09:48:59.168Z,19.62
2019-04-05T09:51:27.022Z,19.57
2019-04-05T09:53:55.064Z,19.47
2019-04-05T09:56:22.858Z,19.54
2019-04-05T09:58:50.703Z,19.50
2019-04-05T10:01:20.109Z,19.53
2019-04-05T10:03:48.134Z,19.71
2019-04-05T10:06:16.103Z,19.90
2019-04-05T10:08:43.921Z,20.12
2019-04-05T10:11:11.695Z,20.32
2019-04-05T10:13:46.363Z,20.59
2019-04-05T10:16:14.133Z,20.82
2019-04-05T10:18:42.059Z,20.93
2019-04-05T10:21:10.046Z,21.02
2019-04-05T10:23:38.162Z,21.24
2019-04-05T10:26:06.225Z,21.33
2019-04-05T10:28:34.140Z,21.43
2019-04-05T10:31:02.030Z,21.52
2019-04-05T10:33:30.065Z,21.63
2019-04-05T10:35:57.938Z,21.72
2019-04-05T10:38:26.021Z,21.87
2019-04-05T10:40:53.993Z,21.92
2019-04-05T10:43:21.909Z,22.01
2019-04-05T10:45:50.583Z,21.87
2019-04-05T10:48:18.525Z,22.05
2019-04-05T10:50:48.313Z,22.15
2019-04-05T10:53:16.128Z,22.26
2019-04-05T10:55:43.891Z,22.25
2019-04-05T10:58:11.954Z,22.35
2019-04-05T11:00:39.930Z,22.46
2019-04-05T11:03:07.877Z,22.52
2019-04-05T11:05:37.165Z,22.53
2019-04-05T11:08:05.431Z,22.62
2019-04-05T11:10:33.308Z,22.71
2019-04-05T11:13:01.852Z,22.78
2019-04-05T11:15:31.037Z,22.86
2019-04-05T11:17:59.333Z,23.00
2019-04-05T11:20:27.188Z,23.06
2019-04-05T11:22:54.971Z,23.16
2019-04-05T11:25:23.075Z,23.32
2019-04-05T11:27:50.840Z,23.29
2019-04-05T11:30:40.459Z,23.33
2019-04-05T11:33:08.403Z,23.48
2019-04-05T11:35:36.710Z,23.55
2019-04-05T11:38:04.796Z,23.57
2019-04-05T11:40:33.112Z,23.56
2019-04-05T11:43:02.861Z,23.58
2019-04-05T11:45:32.636Z,23.56
2019-04-05T11:48:02.471Z,23.62
2019-04-05T11:50:34.671Z,23.81
2019-04-05T11:53:00.492Z,23.84
2019-04-05T11:55:28.434Z,24.06
2019-04-05T11:57:56.346Z,24.13
2019-04-05T12:00:33.233Z,24.26
2019-04-05T12:03:04.118Z,24.21
2019-04-05T12:05:32.191Z,24.15
2019-04-05T12:08:01.859Z,24.29
2019-04-05T12:10:31.978Z,24.37
2019-04-05T12:12:59.530Z,24.45
2019-04-05T12:15:27.876Z,24.41
2019-04-05T12:18:04.633Z,24.52
2019-04-05T12:20:33.258Z,24.57
2019-04-05T12:23:01.567Z,24.64
2019-04-05T12:25:29.377Z,24.74
2019-04-05T12:28:06.250Z,24.69
2019-04-05T12:30:27.562Z,24.73
2019-04-05T12:32:55.452Z,24.86
2019-04-05T12:35:23.290Z,24.78
2019-04-05T12:37:55.463Z,24.77
2019-04-05T12:40:20.832Z,24.70
2019-04-05T12:42:48.684Z,24.68
2019-04-05T12:45:16.708Z,24.97
2019-04-05T12:47:45.704Z,24.77
2019-04-05T12:50:15.328Z,24.93
2019-04-05T12:52:43.430Z,25.12
2019-04-05T12:55:11.543Z,24.99
2019-04-05T12:57:39.420Z,25.07
2019-04-05T13:00:12.978Z,25.12
2019-04-05T13:02:39.217Z,24.97
2019-04-05T13:05:07.129Z,25.01
2019-04-05T13:07:35.468Z,25.01
2019-04-05T13:10:04.163Z,25.11
2019-04-05T13:12:32.195Z,25.09
2019-04-05T13:15:11.624Z,25.24
2019-04-05T13:17:31.204Z,25.32
2019-04-05T13:20:11.024Z,25.39
2019-04-05T13:22:40.732Z,25.40
2019-04-05T13:25:11.096Z,25.44
2019-04-05T13:27:41.312Z,25.57
2019-04-05T13:30:08.580Z,25.44
2019-04-05T13:32:36.341Z,25.43
2019-04-05T13:35:04.928Z,25.47
2019-04-05T13:37:32.779Z,25.57
2019-04-05T13:40:00.756Z,25.72
2019-04-05T13:42:31.231Z,25.66
2019-04-05T13:44:58.359Z,25.72
2019-04-05T13:47:26.146Z,25.63
2019-04-05T13:49:54.064Z,25.78
2019-04-05T13:52:22.030Z,25.74
2019-04-05T13:54:49.976Z,25.80
2019-04-05T13:57:18.469Z,25.77
2019-04-05T13:59:46.277Z,25.69
2019-04-05T14:02:14.309Z,25.74
2019-04-05T14:04:42.121Z,25.50
2019-04-05T14:07:10.135Z,25.22
2019-04-05T14:09:38.467Z,25.27
2019-04-05T14:12:09.508Z,25.22
2019-04-05T14:14:39.389Z,25.13
2019-04-05T14:17:08.259Z,25.05
2019-04-05T14:19:36.253Z,25.04
2019-04-05T14:22:08.819Z,24.93
2019-04-05T14:24:36.281Z,25.04
2019-04-05T14:27:04.415Z,25.11
2019-04-05T14:29:33.349Z,25.14
2019-04-05T14:32:19.463Z,25.08
2019-04-05T14:34:31.846Z,25.19
2019-04-05T14:36:59.782Z,25.35
2019-04-05T14:39:27.593Z,25.48
2019-04-05T14:41:55.500Z,25.70
2019-04-05T14:44:23.399Z,25.80
2019-04-05T14:46:51.410Z,25.68
2019-04-05T14:49:19.242Z,25.72
2019-04-05T14:51:53.733Z,25.70
2019-04-05T14:54:16.843Z,25.81
2019-04-05T14:56:44.666Z,25.63
2019-04-05T14:59:12.420Z,25.16
2019-04-05T15:01:40.340Z,24.83
2019-04-05T15:04:08.122Z,24.76
2019-04-05T15:06:36.125Z,24.27
2019-04-05T15:09:05.498Z,24.36
2019-04-05T15:11:33.519Z,24.01
2019-04-05T15:14:01.496Z,23.94
2019-04-05T15:16:29.421Z,23.77
2019-04-05T15:18:57.278Z,23.58
2019-04-05T15:21:25.194Z,23.33
2019-04-05T15:23:53.052Z,23.08
2019-04-05T15:26:21.508Z,23.02
2019-04-05T15:28:49.526Z,22.94
2019-04-05T15:31:17.338Z,22.83
2019-04-05T15:33:45.114Z,22.61
2019-04-05T15:36:12.950Z,22.49
2019-04-05T15:38:40.913Z,22.53
2019-04-05T15:41:08.910Z,22.57
2019-04-05T15:43:36.771Z,22.33
2019-04-05T15:46:04.846Z,22.44
2019-04-05T15:48:32.704Z,22.56
2019-04-05T15:51:00.592Z,22.58
2019-04-05T15:53:32.164Z,22.68
2019-04-05T15:56:05.091Z,22.43
2019-04-05T15:58:34.094Z,22.35
2019-04-05T16:01:04.411Z,22.35
2019-04-05T16:03:33.288Z,22.28
2019-04-05T16:06:01.265Z,22.26
2019-04-05T16:08:29.333Z,22.20
2019-04-05T16:10:57.437Z,22.23
2019-04-05T16:13:25.247Z,22.17
2019-04-05T16:15:53.107Z,22.10
2019-04-05T16:18:21.032Z,22.09
2019-04-05T16:20:48.900Z,21.96
2019-04-05T16:23:16.938Z,21.87
2019-04-05T16:25:44.798Z,21.84
2019-04-05T16:28:12.720Z,21.89
2019-04-05T16:30:40.597Z,21.68
2019-04-05T16:33:08.514Z,21.65
2019-04-05T16:35:36.265Z,21.63
2019-04-05T16:38:04.512Z,21.56
2019-04-05T16:40:32.461Z,21.55
2019-04-05T16:43:02.585Z,21.60
2019-04-05T16:45:30.285Z,21.62
2019-04-05T16:47:58.109Z,21.56
2019-04-05T16:50:26.077Z,21.33
2019-04-05T16:52:54.005Z,21.16
2019-04-05T16:55:21.962Z,21.05
2019-04-05T16:57:49.891Z,21.13
2019-04-05T17:00:18.269Z,21.10
2019-04-05T17:02:46.180Z,21.11
2019-04-05T17:05:16.897Z,21.14
2019-04-05T17:07:44.836Z,20.89
2019-04-05T17:10:13.580Z,20.85
2019-04-05T17:12:42.823Z,20.87
2019-04-05T17:15:13.485Z,20.77
2019-04-05T17:17:41.500Z,20.78
2019-04-05T17:20:09.688Z,20.77
2019-04-05T17:22:37.655Z,20.75
2019-04-05T17:25:05.601Z,20.70
2019-04-05T17:27:33.579Z,20.70
2019-04-05T17:30:01.502Z,20.68
2019-04-05T17:32:29.349Z,20.70
2019-04-05T17:34:57.178Z,20.65
2019-04-05T17:37:26.770Z,20.58
2019-04-05T17:39:55.428Z,20.58
2019-04-05T17:42:23.304Z,20.62
2019-04-05T17:44:53.597Z,20.67
2019-04-05T17:47:21.549Z,20.56
2019-04-05T17:49:49.656Z,20.53
2019-04-05T17:52:17.513Z,20.51
2019-04-05T17:54:45.582Z,20.51
2019-04-05T17:57:13.770Z,20.37
2019-04-05T17:59:41.799Z,20.30
2019-04-05T18:02:09.804Z,20.20
2019-04-05T18:04:37.624Z,20.19
2019-04-05T18:07:05.629Z,20.15
2019-04-05T18:09:33.557Z,20.12
2019-04-05T18:12:01.574Z,20.03
2019-04-05T18:14:29.490Z,20.02
2019-04-05T18:16:57.261Z,19.97
2019-04-05T18:19:25.322Z,19.85
2019-04-05T18:21:53.494Z,19.79
2019-04-05T18:24:21.382Z,19.74
2019-04-05T18:26:51.469Z,19.70
2019-04-05T18:29:19.418Z,19.74
2019-04-05T18:31:49.374Z,19.63
2019-04-05T18:34:17.460Z,19.65
2019-04-05T18:36:46.047Z,19.65
2019-04-05T18:39:15.212Z,19.61
2019-04-05T18:41:43.217Z,19.61
2019-04-05T18:44:11.381Z,19.57
2019-04-05T18:46:39.359Z,19.58
2019-04-05T18:49:07.313Z,19.57
2019-04-05T18:51:35.197Z,19.59
2019-04-05T18:54:03.423Z,19.58
2019-04-05T18:56:31.380Z,19.63
2019-04-05T18:58:59.332Z,19.66
2019-04-05T19:01:29.547Z,19.64
2019-04-05T19:03:58.486Z,19.62
2019-04-05T19:06:26.567Z,19.64
2019-04-05T19:08:54.509Z,19.55
2019-04-05T19:11:22.493Z,19.47
2019-04-05T19:14:00.507Z,19.38
2019-04-05T19:16:20.138Z,19.31
2019-04-05T19:18:48.071Z,19.36
2019-04-05T19:21:15.935Z,19.27
2019-04-05T19:23:50.734Z,19.19
2019-04-05T19:26:13.904Z,19.16
2019-04-05T19:28:41.839Z,19.09
2019-04-05T19:48:41.395Z,18.83
2019-04-05T19:51:09.495Z,18.78
2019-04-05T19:53:37.479Z,18.76
2019-04-05T19:56:05.494Z,18.67
2019-04-05T19:58:34.135Z,18.67
2019-04-05T20:01:02.357Z,18.50
2019-04-05T20:03:31.375Z,18.49
2019-04-05T20:05:59.210Z,18.45
2019-04-05T20:08:27.167Z,18.35
2019-04-05T20:10:55.271Z,18.35
2019-04-05T20:13:23.184Z,18.32
2019-04-05T20:15:51.111Z,18.28
2019-04-05T20:18:19.326Z,18.34
2019-04-05T20:20:47.261Z,18.25
2019-04-05T20:23:15.203Z,18.29
2019-04-05T20:25:43.270Z,18.27
2019-04-05T20:28:13.140Z,18.35
2019-04-05T20:30:41.062Z,18.29
2019-04-05T20:33:09.262Z,18.30
2019-04-05T20:35:39.309Z,18.29
2019-04-05T20:38:07.560Z,18.32
2019-04-05T20:40:35.752Z,18.29
2019-04-05T20:43:03.869Z,18.24
2019-04-05T20:45:31.932Z,18.26
2019-04-05T20:48:00.141Z,18.12
2019-04-05T20:50:28.080Z,18.09
2019-04-05T20:52:55.955Z,18.07
2019-04-05T20:55:23.828Z,17.96
2019-04-05T20:57:51.612Z,17.85
2019-04-05T21:00:19.688Z,17.78
2019-04-05T21:02:48.833Z,17.66
2019-04-05T21:05:25.296Z,17.50
2019-04-05T21:07:47.656Z,17.38
2019-04-05T21:10:15.783Z,17.31
2019-04-05T21:12:43.901Z,17.22
2019-04-05T21:15:13.586Z,17.12
2019-04-05T21:17:43.173Z,17.07
2019-04-05T21:20:11.875Z,17.00
2019-04-05T21:22:41.877Z,16.98
2019-04-05T21:25:10.855Z,16.91
2019-04-05T21:27:39.489Z,16.80
2019-04-05T21:30:08.175Z,16.79
2019-04-05T21:32:39.689Z,16.72
2019-04-05T21:35:08.700Z,16.69
2019-04-05T21:37:36.946Z,16.68
2019-04-05T21:40:06.395Z,16.61
2019-04-05T21:42:34.636Z,16.59
2019-04-05T21:45:02.928Z,16.52
2019-04-05T21:47:30.813Z,16.40
2019-04-05T21:49:58.726Z,16.40
2019-04-05T21:52:27.442Z,16.27
2019-04-05T21:54:55.432Z,16.13
2019-04-05T21:57:42.897Z,16.13
2019-04-05T22:00:22.302Z,16.13
2019-04-05T22:02:50.271Z,16.09
2019-04-05T22:05:18.286Z,16.05
2019-04-05T22:07:46.260Z,15.99
2019-04-05T22:10:14.282Z,15.82
2019-04-05T22:12:44.270Z,15.85
2019-04-05T22:15:12.557Z,15.61
2019-04-05T22:17:40.964Z,15.60
2019-04-05T22:20:09.009Z,15.57
2019-04-05T22:22:36.938Z,15.58
2019-04-05T22:25:06.122Z,15.51
2019-04-05T22:27:34.388Z,15.44
2019-04-05T22:30:02.887Z,15.34
2019-04-05T22:32:30.740Z,15.34
2019-04-05T22:34:58.620Z,15.25
2019-04-05T22:37:26.670Z,15.21
2019-04-05T22:39:57.751Z,15.26
2019-04-05T22:42:25.719Z,15.23
2019-04-05T22:44:53.708Z,15.13
2019-04-05T22:47:21.728Z,15.10
2019-04-05T22:49:49.513Z,15.05
2019-04-05T22:52:17.395Z,14.99
2019-04-05T22:54:45.228Z,14.91
2019-04-05T22:57:13.152Z,14.86
2019-04-05T22:59:41.051Z,14.87
2019-04-05T23:02:08.888Z,14.95
2019-04-05T23:04:36.759Z,14.85
2019-04-05T23:07:04.590Z,14.89
2019-04-05T23:09:32.494Z,14.87
2019-04-05T23:12:00.398Z,14.83
2019-04-05T23:14:28.313Z,14.83
2019-04-05T23:16:56.630Z,14.79
2019-04-05T23:19:24.504Z,14.76
2019-04-05T23:21:52.337Z,14.72
2019-04-05T23:24:20.208Z,14.57
2019-04-05T23:26:48.113Z,14.50
2019-04-05T23:29:15.899Z,14.40
2019-04-05T23:31:43.824Z,14.26
2019-04-05T23:34:11.714Z,14.23
2019-04-05T23:36:39.714Z,14.21
2019-04-05T23:39:07.777Z,14.12
2019-04-05T23:41:35.739Z,14.06
2019-04-05T23:44:03.764Z,14.11
2019-04-05T23:46:31.697Z,14.16
2019-04-05T23:49:00.136Z,14.24
2019-04-05T23:51:27.920Z,14.20
2019-04-05T23:53:55.896Z,14.23
2019-04-05T23:56:23.674Z,14.25
2019-04-05T23:58:51.710Z,14.24
